createdAt,value
2023-04-11T00:01:54.587Z,35.90
2023-04-11T00:04:25.516Z,35.80
2023-04-11T00:06:52.398Z,35.70
2023-04-11T00:09:19.241Z,35.60
2023-04-11T00:11:46.051Z,35.40
2023-04-11T00:14:12.958Z,35.40
2023-04-11T00:16:41.530Z,35.60
2023-04-11T00:19:09.510Z,35.60
2023-04-11T00:21:40.079Z,36.00
2023-04-11T00:24:08.239Z,36.10
2023-04-11T00:26:35.004Z,36.20
2023-04-11T00:29:01.767Z,36.10
2023-04-11T00:31:28.454Z,36.20
2023-04-11T00:33:55.248Z,36.00
2023-04-11T00:36:22.102Z,35.90
2023-04-11T00:38:48.931Z,35.80
2023-04-11T00:41:15.678Z,35.90
2023-04-11T00:43:42.416Z,36.00
2023-04-11T00:46:09.474Z,35.80
2023-04-11T00:48:36.490Z,35.90
2023-04-11T00:51:03.419Z,35.90
2023-04-11T00:53:32.792Z,36.20
2023-04-11T00:56:02.661Z,36.60
2023-04-11T00:58:29.517Z,37.00
2023-04-11T01:00:56.248Z,37.50
2023-04-11T01:03:23.700Z,37.50
2023-04-11T01:05:54.597Z,37.70
2023-04-11T01:08:22.973Z,38.90
2023-04-11T01:10:49.893Z,38.30
2023-04-11T01:13:17.229Z,38.70
2023-04-11T01:15:44.125Z,39.10
2023-04-11T01:18:11.756Z,39.60
2023-04-11T01:20:38.757Z,40.40
2023-04-11T01:23:06.345Z,40.40
2023-04-11T01:25:33.111Z,40.70
2023-04-11T01:27:59.881Z,41.20
2023-04-11T01:30:26.739Z,41.40
2023-04-11T01:32:53.570Z,41.90
2023-04-11T01:35:20.646Z,41.20
2023-04-11T01:37:47.534Z,41.10
2023-04-11T01:40:17.920Z,41.30
2023-04-11T01:42:46.843Z,41.40
2023-04-11T01:45:14.156Z,41.40
2023-04-11T01:47:41.112Z,41.50
2023-04-11T01:50:08.393Z,41.50
2023-04-11T01:52:35.138Z,41.20
2023-04-11T01:55:02.093Z,40.90
2023-04-11T01:57:28.819Z,40.70
2023-04-11T01:59:55.635Z,40.50
2023-04-11T02:02:22.590Z,40.10
2023-04-11T02:04:49.482Z,39.70
2023-04-11T02:07:16.253Z,39.80
2023-04-11T02:09:43.028Z,40.00
2023-04-11T02:12:09.770Z,40.30
2023-04-11T02:14:44.319Z,40.80
2023-04-11T02:17:11.960Z,40.90
2023-04-11T02:19:41.253Z,40.90
2023-04-11T02:22:11.662Z,40.90
2023-04-11T02:24:39.135Z,40.90
2023-04-11T02:27:06.482Z,40.60
2023-04-11T02:29:33.708Z,40.70
2023-04-11T02:32:00.632Z,40.80
2023-04-11T02:34:27.506Z,40.90
2023-04-11T02:36:54.344Z,40.80
2023-04-11T02:39:24.014Z,40.70
2023-04-11T02:41:51.385Z,40.80
2023-04-11T02:44:19.177Z,40.70
2023-04-11T02:46:46.018Z,40.80
2023-04-11T02:49:12.854Z,40.90
2023-04-11T02:51:39.546Z,40.90
2023-04-11T02:54:06.351Z,41.00
2023-04-11T02:56:34.959Z,41.20
2023-04-11T02:59:01.771Z,43.10
2023-04-11T03:01:29.317Z,44.40
2023-04-11T03:03:56.255Z,45.10
2023-04-11T03:06:23.321Z,45.50
2023-04-11T03:08:50.378Z,45.40
2023-04-11T03:11:17.137Z,45.20
2023-04-11T03:13:44.166Z,43.90
2023-04-11T03:16:13.723Z,42.50
2023-04-11T03:18:40.854Z,40.70
2023-04-11T03:21:10.385Z,40.00
2023-04-11T03:23:38.404Z,38.70
2023-04-11T03:26:06.322Z,39.40
2023-04-11T03:28:33.315Z,38.90
2023-04-11T03:31:00.373Z,39.10
2023-04-11T03:33:27.199Z,37.60
2023-04-11T03:35:54.019Z,36.10
2023-04-11T03:38:21.261Z,36.10
2023-04-11T03:40:48.326Z,36.10
2023-04-11T03:43:16.826Z,35.00
2023-04-11T03:45:43.735Z,35.00
2023-04-11T03:48:10.641Z,35.20
2023-04-11T03:50:37.562Z,34.70
2023-04-11T03:53:04.473Z,33.30
2023-04-11T03:55:31.404Z,33.90
2023-04-11T03:57:58.180Z,34.10
2023-04-11T04:00:24.990Z,33.70
2023-04-11T04:02:51.933Z,33.60
2023-04-11T04:05:18.914Z,32.60
2023-04-11T04:07:45.930Z,32.70
2023-04-11T04:10:12.756Z,32.50
2023-04-11T04:12:40.339Z,33.30
2023-04-11T04:15:07.589Z,34.40
2023-04-11T04:17:34.485Z,35.10
2023-04-11T04:20:01.226Z,35.60
2023-04-11T04:22:29.945Z,36.20
2023-04-11T04:24:58.259Z,35.90
2023-04-11T04:27:25.221Z,36.70
2023-04-11T04:30:00.586Z,36.40
2023-04-11T04:32:30.820Z,36.50
2023-04-11T04:34:58.716Z,36.00
2023-04-11T04:37:27.102Z,36.20
2023-04-11T04:39:55.844Z,36.20
2023-04-11T04:42:27.744Z,36.00
2023-04-11T04:44:55.991Z,36.40
2023-04-11T04:47:24.467Z,36.80
2023-04-11T04:49:57.545Z,38.30
2023-04-11T04:52:28.554Z,41.20
2023-04-11T04:54:59.816Z,43.80
2023-04-11T04:57:27.830Z,45.70
2023-04-11T04:59:55.609Z,47.40
2023-04-11T05:02:22.571Z,48.40
2023-04-11T05:04:50.367Z,49.10
2023-04-11T05:07:20.919Z,49.80
2023-04-11T05:09:47.882Z,50.10
2023-04-11T05:12:17.650Z,50.80
2023-04-11T05:14:44.457Z,51.80
2023-04-11T05:17:11.334Z,52.80
2023-04-11T05:19:38.116Z,53.70
2023-04-11T05:22:04.821Z,54.00
2023-04-11T05:24:31.562Z,54.20
2023-04-11T05:26:58.320Z,54.80
2023-04-11T05:29:25.143Z,54.70
2023-04-11T05:31:51.854Z,55.20
2023-04-11T05:34:18.620Z,56.50
2023-04-11T05:36:47.189Z,57.20
2023-04-11T05:39:14.224Z,58.70
2023-04-11T05:41:41.076Z,61.40
2023-04-11T05:44:07.921Z,64.20
2023-04-11T05:46:36.887Z,65.30
2023-04-11T05:49:04.423Z,66.80
2023-04-11T05:51:31.472Z,68.90
2023-04-11T05:53:58.683Z,69.70
2023-04-11T05:56:25.732Z,70.30
2023-04-11T05:58:52.675Z,70.40
2023-04-11T06:01:19.553Z,72.00
2023-04-11T06:03:47.019Z,72.10
2023-04-11T06:06:14.222Z,71.90
2023-04-11T06:08:41.131Z,71.90
2023-04-11T06:11:07.968Z,72.40
2023-04-11T06:13:34.860Z,72.10
2023-04-11T06:16:02.122Z,71.50
2023-04-11T06:18:29.049Z,71.10
2023-04-11T06:20:55.881Z,70.00
2023-04-11T06:23:22.634Z,69.70
2023-04-11T06:25:49.387Z,69.60
2023-04-11T06:28:16.155Z,69.70
2023-04-11T06:30:42.945Z,70.20
2023-04-11T06:33:09.767Z,70.50
2023-04-11T06:35:36.698Z,71.40
2023-04-11T06:38:03.421Z,72.40
2023-04-11T06:40:30.181Z,72.90
2023-04-11T06:42:58.703Z,74.10
2023-04-11T06:45:25.863Z,74.20
2023-04-11T06:47:52.685Z,73.90
2023-04-11T06:50:19.555Z,74.90
2023-04-11T06:52:46.418Z,72.20
2023-04-11T06:55:15.475Z,70.60
2023-04-11T06:57:43.988Z,69.40
2023-04-11T07:00:13.007Z,68.80
2023-04-11T07:02:40.122Z,66.80
2023-04-11T07:05:09.356Z,67.70
2023-04-11T07:07:36.575Z,65.40
2023-04-11T07:10:04.174Z,65.30
2023-04-11T07:12:31.183Z,64.20
2023-04-11T07:14:57.964Z,59.70
2023-04-11T07:17:24.841Z,58.20
2023-04-11T07:19:51.668Z,56.50
2023-04-11T07:22:19.546Z,55.90
2023-04-11T07:24:46.790Z,55.70
2023-04-11T07:27:14.478Z,54.90
2023-04-11T07:29:41.390Z,55.30
2023-04-11T07:32:08.326Z,54.30
2023-04-11T07:34:35.536Z,53.60
2023-04-11T07:37:02.363Z,51.50
2023-04-11T07:39:29.185Z,52.60
2023-04-11T07:41:56.848Z,51.20
2023-04-11T07:44:24.104Z,51.60
2023-04-11T07:46:51.200Z,51.50
2023-04-11T07:49:18.024Z,50.40
2023-04-11T07:51:44.797Z,47.70
2023-04-11T07:54:12.319Z,47.00
2023-04-11T07:56:39.092Z,45.80
2023-04-11T07:59:05.906Z,44.60
2023-04-11T08:01:32.810Z,45.30
2023-04-11T08:03:59.882Z,44.10
2023-04-11T08:06:28.960Z,44.10
2023-04-11T08:08:56.280Z,44.00
2023-04-11T08:11:23.129Z,44.60
2023-04-11T08:13:50.235Z,44.80
2023-04-11T08:16:17.301Z,44.30
2023-04-11T08:18:45.674Z,44.10
2023-04-11T08:21:12.699Z,44.00
2023-04-11T08:23:39.962Z,43.90
2023-04-11T08:26:07.769Z,43.90
2023-04-11T08:28:34.561Z,42.90
2023-04-11T08:31:04.089Z,42.30
2023-04-11T08:33:32.187Z,42.10
2023-04-11T08:35:58.929Z,42.60
2023-04-11T08:38:25.973Z,42.20
2023-04-11T08:40:53.110Z,41.90
2023-04-11T08:43:20.256Z,41.30
2023-04-11T08:45:47.215Z,40.40
2023-04-11T08:48:14.023Z,40.20
2023-04-11T08:50:42.422Z,39.90
2023-04-11T08:53:09.849Z,40.10
2023-04-11T08:55:45.846Z,39.40
2023-04-11T08:58:12.887Z,39.50
2023-04-11T09:00:39.696Z,39.30
2023-04-11T09:03:08.220Z,39.40
2023-04-11T09:05:40.344Z,38.80
2023-04-11T09:08:14.169Z,39.10
2023-04-11T09:10:45.358Z,39.60
2023-04-11T09:13:21.686Z,39.60
2023-04-11T09:16:02.988Z,39.00
2023-04-11T09:18:44.394Z,38.90
2023-04-11T09:21:15.540Z,38.90
2023-04-11T09:23:42.537Z,39.10
2023-04-11T09:26:11.146Z,39.70
2023-04-11T09:28:40.950Z,39.80
2023-04-11T09:31:09.383Z,39.70
2023-04-11T09:33:36.190Z,39.50
2023-04-11T09:36:19.770Z,38.90
2023-04-11T09:38:46.529Z,39.20
2023-04-11T09:41:13.682Z,38.60
2023-04-11T09:43:51.465Z,38.20
2023-04-11T09:46:20.936Z,38.20
2023-04-11T09:48:49.882Z,38.20
2023-04-11T09:51:34.143Z,37.30
2023-04-11T09:54:03.736Z,37.10
2023-04-11T09:56:31.729Z,37.00
2023-04-11T09:59:00.597Z,36.60
2023-04-11T10:01:27.610Z,36.10
2023-04-11T10:03:56.438Z,35.60
2023-04-11T10:06:34.941Z,35.50
2023-04-11T10:09:07.154Z,35.40
2023-04-11T10:11:34.182Z,34.80
2023-04-11T10:14:00.888Z,34.40
2023-04-11T10:16:31.377Z,35.40
2023-04-11T10:18:58.321Z,34.30
2023-04-11T10:21:32.640Z,34.50
2023-04-11T10:24:16.278Z,34.30
2023-04-11T10:27:04.266Z,33.80
2023-04-11T10:29:34.624Z,33.70
2023-04-11T10:32:17.321Z,33.40
2023-04-11T10:35:16.263Z,33.30
2023-04-11T10:37:43.036Z,33.80
2023-04-11T10:40:10.312Z,32.80
2023-04-11T10:42:45.746Z,33.00
2023-04-11T10:45:18.542Z,32.90
2023-04-11T10:48:07.871Z,31.60
2023-04-11T10:50:40.850Z,31.00
2023-04-11T10:53:10.073Z,30.70
2023-04-11T10:55:46.094Z,30.70
2023-04-11T10:58:23.977Z,31.00
2023-04-11T11:00:53.968Z,31.00
2023-04-11T11:03:23.155Z,29.20
2023-04-11T11:06:05.565Z,29.30
2023-04-11T11:08:43.374Z,28.50
2023-04-11T11:11:11.530Z,28.00
2023-04-11T11:13:43.779Z,27.70
2023-04-11T11:16:16.081Z,27.80
2023-04-11T11:18:49.504Z,28.10
2023-04-11T11:21:26.461Z,27.80
2023-04-11T11:23:55.871Z,28.90
2023-04-11T11:26:24.694Z,28.60
2023-04-11T11:28:51.528Z,28.70
2023-04-11T11:31:18.367Z,28.80
2023-04-11T11:33:45.296Z,27.80
2023-04-11T11:36:14.611Z,27.70
2023-04-11T11:38:41.505Z,28.10
2023-04-11T11:41:08.392Z,27.90
2023-04-11T11:43:36.872Z,28.40
2023-04-11T11:46:09.252Z,28.70
2023-04-11T11:48:36.935Z,28.80
2023-04-11T11:51:03.833Z,29.00
2023-04-11T11:53:30.655Z,29.10
2023-04-11T11:55:57.997Z,29.10
2023-04-11T11:58:25.338Z,28.00
2023-04-11T12:00:53.064Z,28.00
2023-04-11T12:03:24.751Z,25.40
2023-04-11T12:05:55.209Z,25.10
2023-04-11T12:08:22.353Z,24.50
2023-04-11T12:10:50.525Z,24.40
2023-04-11T12:13:22.542Z,24.30
2023-04-11T12:15:57.527Z,24.30
2023-04-11T12:18:28.610Z,24.90
2023-04-11T12:20:55.628Z,25.20
2023-04-11T12:23:22.975Z,25.50
2023-04-11T12:25:49.823Z,25.40
2023-04-11T12:28:16.902Z,25.30
2023-04-11T12:30:43.667Z,25.40
2023-04-11T12:33:10.418Z,25.70
2023-04-11T12:35:37.582Z,25.30
2023-04-11T12:38:04.493Z,25.90
2023-04-11T12:40:31.371Z,26.20
2023-04-11T12:42:58.190Z,26.40
2023-04-11T12:45:25.730Z,25.80
2023-04-11T12:47:53.022Z,26.10
2023-04-11T12:50:19.865Z,26.10
2023-04-11T12:52:49.404Z,26.00
2023-04-11T12:55:16.244Z,26.00
2023-04-11T12:57:43.862Z,26.60
2023-04-11T13:00:12.904Z,27.50
2023-04-11T13:02:44.079Z,26.70
2023-04-11T13:05:15.622Z,26.30
2023-04-11T13:07:44.953Z,26.50
2023-04-11T13:10:13.819Z,26.40
2023-04-11T13:12:43.842Z,26.80
2023-04-11T13:15:12.007Z,27.10
2023-04-11T13:17:39.293Z,26.90
2023-04-11T13:20:07.825Z,25.90
2023-04-11T13:22:34.718Z,25.90
2023-04-11T13:25:01.523Z,25.70
2023-04-11T13:27:28.298Z,25.30
2023-04-11T13:29:55.072Z,25.40
2023-04-11T13:32:21.895Z,25.50
2023-04-11T13:34:48.661Z,25.50
2023-04-11T13:37:15.578Z,25.40
2023-04-11T13:39:42.945Z,25.50
2023-04-11T13:42:10.602Z,25.20
2023-04-11T13:44:37.448Z,24.10
2023-04-11T13:47:04.251Z,23.50
2023-04-11T13:49:31.059Z,22.60
2023-04-11T13:51:57.844Z,22.50
2023-04-11T13:54:24.572Z,22.20
2023-04-11T13:56:51.293Z,22.80
2023-04-11T13:59:18.137Z,23.50
2023-04-11T14:01:45.501Z,23.30
2023-04-11T14:04:12.440Z,23.60
2023-04-11T14:06:39.834Z,23.70
2023-04-11T14:09:06.637Z,23.60
2023-04-11T14:11:33.535Z,23.90
2023-04-11T14:14:00.243Z,24.00
2023-04-11T14:16:26.937Z,24.20
2023-04-11T14:18:53.744Z,24.10
2023-04-11T14:21:21.195Z,24.00
2023-04-11T14:23:48.606Z,24.00
2023-04-11T14:26:15.604Z,24.00
2023-04-11T14:28:43.006Z,23.90
2023-04-11T14:31:09.855Z,23.90
2023-04-11T14:33:36.781Z,24.30
2023-04-11T14:36:03.720Z,24.30
2023-04-11T14:38:30.783Z,24.20
2023-04-11T14:40:57.622Z,24.20
2023-04-11T14:43:24.420Z,24.70
2023-04-11T14:45:55.633Z,24.70
2023-04-11T14:48:23.771Z,24.30
2023-04-11T14:50:50.534Z,23.70
2023-04-11T14:53:17.643Z,23.90
2023-04-11T14:55:44.744Z,23.30
2023-04-11T14:58:11.633Z,23.60
2023-04-11T15:00:38.387Z,20.40
2023-04-11T15:03:05.361Z,20.20
2023-04-11T15:05:32.259Z,19.30
2023-04-11T15:07:59.262Z,17.70
2023-04-11T15:10:26.488Z,17.00
2023-04-11T15:12:53.333Z,16.30
2023-04-11T15:15:20.454Z,16.50
2023-04-11T15:17:49.149Z,16.70
2023-04-11T15:20:16.604Z,16.80
2023-04-11T15:22:46.532Z,17.10
2023-04-11T15:25:16.637Z,17.10
2023-04-11T15:27:43.992Z,17.40
2023-04-11T15:30:11.449Z,17.70
2023-04-11T15:32:47.264Z,18.20
2023-04-11T15:35:13.993Z,18.40
2023-04-11T15:37:42.007Z,18.70
2023-04-11T15:40:12.095Z,18.70
2023-04-11T15:42:39.289Z,19.20
2023-04-11T15:45:06.830Z,19.30
2023-04-11T15:47:33.806Z,19.40
2023-04-11T15:50:02.828Z,20.10
2023-04-11T15:52:29.637Z,20.50
2023-04-11T15:54:57.100Z,20.60
2023-04-11T15:57:23.839Z,20.60
2023-04-11T15:59:50.544Z,20.70
2023-04-11T16:02:17.382Z,20.70
2023-04-11T16:04:47.230Z,20.90
2023-04-11T16:07:18.391Z,21.20
2023-04-11T16:09:45.383Z,21.10
2023-04-11T16:12:12.500Z,20.80
2023-04-11T16:14:39.424Z,21.00
2023-04-11T16:17:06.376Z,21.10
2023-04-11T16:19:33.266Z,21.20
2023-04-11T16:22:00.093Z,21.40
2023-04-11T16:24:29.112Z,21.30
2023-04-11T16:26:57.170Z,22.00
2023-04-11T16:29:24.857Z,21.50
2023-04-11T16:31:51.832Z,21.50
2023-04-11T16:34:18.727Z,21.30
2023-04-11T16:36:45.535Z,21.10
2023-04-11T16:39:12.320Z,21.00
2023-04-11T16:41:39.183Z,21.00
2023-04-11T16:44:11.223Z,20.90
2023-04-11T16:46:39.188Z,21.10
2023-04-11T16:49:06.079Z,21.20
2023-04-11T16:51:33.238Z,21.20
2023-04-11T16:54:00.136Z,21.50
2023-04-11T16:56:29.041Z,21.80
2023-04-11T16:58:56.155Z,21.80
2023-04-11T17:01:22.953Z,21.90
2023-04-11T17:03:52.335Z,22.00
2023-04-11T17:06:19.425Z,22.00
2023-04-11T17:08:46.227Z,22.70
2023-04-11T17:11:13.571Z,22.30
2023-04-11T17:13:45.610Z,22.40
2023-04-11T17:16:12.488Z,22.40
2023-04-11T17:18:40.335Z,22.40
2023-04-11T17:21:07.505Z,22.50
2023-04-11T17:23:42.478Z,22.30
2023-04-11T17:26:10.906Z,22.30
2023-04-11T17:28:38.652Z,22.20
2023-04-11T17:31:12.975Z,22.20
2023-04-11T17:33:40.226Z,22.40
2023-04-11T17:36:07.586Z,27.60
2023-04-11T17:38:34.891Z,32.20
2023-04-11T17:41:13.780Z,32.90
2023-04-11T17:43:41.584Z,34.30
2023-04-11T17:46:09.023Z,36.40
2023-04-11T17:48:36.217Z,37.00
2023-04-11T17:51:05.692Z,37.70
2023-04-11T17:53:32.983Z,38.00
2023-04-11T17:56:06.161Z,38.50
2023-04-11T17:58:33.420Z,38.40
2023-04-11T18:01:00.267Z,38.70
2023-04-11T18:03:27.369Z,39.30
2023-04-11T18:05:54.919Z,39.30
2023-04-11T18:08:28.774Z,39.30
2023-04-11T18:11:04.355Z,40.10
2023-04-11T18:13:31.674Z,40.60
2023-04-11T18:15:58.597Z,40.80
2023-04-11T18:18:25.586Z,41.10
2023-04-11T18:20:52.411Z,41.50
2023-04-11T18:23:19.179Z,41.70
2023-04-11T18:25:46.041Z,42.20
2023-04-11T18:28:12.847Z,42.50
2023-04-11T18:30:39.644Z,42.50
2023-04-11T18:33:06.612Z,43.00
2023-04-11T18:35:33.520Z,43.30
2023-04-11T18:38:00.463Z,43.40
2023-04-11T18:40:27.717Z,43.50
2023-04-11T18:42:56.284Z,43.50
2023-04-11T18:45:24.004Z,43.70
2023-04-11T18:47:51.220Z,43.80
2023-04-11T18:50:18.720Z,44.10
2023-04-11T18:52:46.576Z,44.10
2023-04-11T18:55:14.928Z,44.10
2023-04-11T18:57:44.111Z,44.70
2023-04-11T19:00:18.523Z,45.00
2023-04-11T19:02:46.921Z,45.20
2023-04-11T19:05:14.597Z,45.40
2023-04-11T19:07:42.442Z,46.00
2023-04-11T19:10:10.881Z,46.30
2023-04-11T19:12:38.154Z,46.70
2023-04-11T19:15:09.137Z,46.90
2023-04-11T19:17:38.379Z,46.90
2023-04-11T19:20:12.628Z,47.00
2023-04-11T19:22:40.966Z,47.20
2023-04-11T19:25:10.754Z,47.30
2023-04-11T19:27:41.757Z,47.40
2023-04-11T19:30:10.262Z,47.50
2023-04-11T19:32:40.781Z,47.90
2023-04-11T19:35:10.352Z,47.80
2023-04-11T19:37:37.611Z,47.80
2023-04-11T19:40:07.787Z,47.60
2023-04-11T19:42:37.041Z,47.70
2023-04-11T19:45:04.738Z,47.70
2023-04-11T19:47:32.114Z,47.50
2023-04-11T19:50:00.663Z,47.40
2023-04-11T19:52:28.409Z,47.20
2023-04-11T19:54:56.400Z,47.50
2023-04-11T19:57:24.842Z,47.40
2023-04-11T19:59:51.701Z,47.50
2023-04-11T20:02:18.624Z,47.40
2023-04-11T20:04:46.004Z,48.20
2023-04-11T20:07:14.296Z,48.50
2023-04-11T20:09:41.167Z,50.90
2023-04-11T20:12:08.077Z,50.80
2023-04-11T20:14:34.991Z,50.70
2023-04-11T20:17:01.918Z,51.30
2023-04-11T20:19:29.727Z,51.30
2023-04-11T20:21:56.672Z,51.80
2023-04-11T20:24:23.988Z,52.10
2023-04-11T20:26:51.346Z,52.50
2023-04-11T20:29:18.454Z,52.50
2023-04-11T20:31:45.308Z,52.90
2023-04-11T20:34:12.076Z,52.90
2023-04-11T20:36:39.106Z,53.50
2023-04-11T20:39:06.287Z,53.90
2023-04-11T20:41:33.200Z,54.50
2023-04-11T20:43:59.981Z,54.80
2023-04-11T20:46:29.948Z,55.20
2023-04-11T20:48:56.969Z,55.30
2023-04-11T20:51:25.083Z,55.20
2023-04-11T20:53:51.925Z,55.90
2023-04-11T20:56:18.660Z,55.80
2023-04-11T20:58:46.492Z,55.90
2023-04-11T21:01:13.555Z,56.10
2023-04-11T21:03:42.392Z,56.30
2023-04-11T21:06:10.341Z,56.30
2023-04-11T21:08:37.807Z,56.60
2023-04-11T21:11:05.700Z,56.80
2023-04-11T21:13:32.574Z,57.20
2023-04-11T21:15:59.423Z,57.10
2023-04-11T21:18:26.247Z,57.80
2023-04-11T21:20:53.095Z,57.90
2023-04-11T21:23:19.941Z,57.80
2023-04-11T21:25:46.950Z,57.40
2023-04-11T21:28:13.831Z,57.80
2023-04-11T21:30:42.245Z,58.10
2023-04-11T21:33:10.306Z,57.70
2023-04-11T21:35:37.121Z,57.50
2023-04-11T21:38:03.920Z,57.50
2023-04-11T21:40:30.890Z,58.10
2023-04-11T21:42:57.701Z,58.40
2023-04-11T21:45:24.511Z,58.70
2023-04-11T21:47:51.600Z,58.40
2023-04-11T21:50:18.773Z,58.40
2023-04-11T21:52:46.425Z,58.30
2023-04-11T21:55:14.743Z,57.90
2023-04-11T21:57:42.055Z,58.30
2023-04-11T22:00:10.997Z,58.30
2023-04-11T22:02:38.706Z,58.00
2023-04-11T22:05:08.726Z,57.70
2023-04-11T22:07:48.499Z,57.40
2023-04-11T22:10:22.149Z,57.20
2023-04-11T22:12:49.131Z,57.00
2023-04-11T22:15:18.157Z,56.40
2023-04-11T22:17:46.215Z,56.00
2023-04-11T22:20:13.262Z,55.20
2023-04-11T22:22:40.059Z,55.00
2023-04-11T22:25:08.363Z,54.90
2023-04-11T22:27:35.186Z,54.80
2023-04-11T22:30:02.467Z,54.60
2023-04-11T22:32:30.270Z,54.40
2023-04-11T22:34:57.006Z,54.80
2023-04-11T22:37:23.847Z,55.00
2023-04-11T22:39:50.604Z,55.10
2023-04-11T22:42:17.428Z,55.00
2023-04-11T22:44:44.283Z,54.90
2023-04-11T22:47:16.130Z,55.20
2023-04-11T22:49:44.771Z,54.70
2023-04-11T22:52:15.657Z,54.50
2023-04-11T22:54:43.208Z,54.60
2023-04-11T22:57:10.372Z,55.00
2023-04-11T22:59:37.217Z,54.50
2023-04-11T23:02:04.134Z,54.30
2023-04-11T23:04:32.132Z,54.40
2023-04-11T23:06:59.261Z,54.50
2023-04-11T23:09:26.535Z,54.70
2023-04-11T23:11:53.522Z,55.00
2023-04-11T23:14:21.372Z,54.60
2023-04-11T23:16:48.600Z,54.70
2023-04-11T23:19:15.619Z,54.40
2023-04-11T23:21:43.043Z,54.40
2023-04-11T23:24:10.081Z,54.40
2023-04-11T23:26:37.115Z,54.50
2023-04-11T23:29:04.309Z,54.60
2023-04-11T23:31:31.737Z,55.10
2023-04-11T23:33:58.832Z,55.20
2023-04-11T23:36:27.465Z,54.70
2023-04-11T23:38:54.512Z,54.50
2023-04-11T23:41:21.341Z,55.10
2023-04-11T23:43:48.165Z,55.40
2023-04-11T23:46:16.901Z,55.40
2023-04-11T23:48:44.386Z,55.80
2023-04-11T23:51:11.209Z,55.80
2023-04-11T23:53:38.110Z,56.20
2023-04-11T23:56:05.183Z,56.00
2023-04-11T23:58:31.947Z,56.00
